Time;durP1;ratioP1;P1;durP2;ratioP2;P2;SDS_P1;SDS_P2;PMS_P1;PMS_P2;Temp;Humidity;BMP_temperature;BMP_pressure;BME280_temperature;BME280_humidity;BME280_pressure;Samples;Min_cycle;Max_cycle;Signal;HPM_P1;HPM_P2
2022/07/12 00:00:37;;;;;;;639.47;213.77;;;12.20;1.00;;;;;;5034840;28;20222;-88
2022/07/12 00:03:08;;;;;;;640.20;220.80;;;12.10;1.00;;;;;;5034686;28;20195;-87
2022/07/12 00:05:35;;;;;;;637.43;210.20;;;12.10;1.00;;;;;;5022316;28;20533;-88
2022/07/12 00:08:02;;;;;;;639.63;212.73;;;12.10;1.00;;;;;;5034258;28;20207;-89
2022/07/12 00:10:30;;;;;;;637.43;210.90;;;12.00;1.00;;;;;;5034444;28;20251;-87
2022/07/12 00:12:57;;;;;;;636.80;212.20;;;12.00;1.00;;;;;;5034704;28;20202;-87
2022/07/12 00:15:24;;;;;;;637.93;213.63;;;11.90;1.00;;;;;;5034105;28;20316;-88
2022/07/12 00:17:51;;;;;;;640.57;208.73;;;11.90;1.00;;;;;;5034466;28;20223;-88
2022/07/12 00:20:20;;;;;;;635.00;211.67;;;11.90;1.00;;;;;;5034466;28;20228;-87
2022/07/12 00:22:47;;;;;;;;;;;11.80;1.00;;;;;;5034441;28;20199;-87
2022/07/12 00:25:14;;;;;;;;;;;11.80;1.00;;;;;;5034436;28;19999;-87
2022/07/12 00:27:41;;;;;;;;;;;11.80;1.00;;;;;;5034483;28;20085;-88
2022/07/12 00:30:09;;;;;;;636.60;205.67;;;11.80;1.00;;;;;;5034367;28;20074;-88
2022/07/12 00:32:36;;;;;;;639.23;209.60;;;11.80;1.00;;;;;;5033746;28;20605;-88
2022/07/12 00:35:03;;;;;;;641.77;216.17;;;11.70;1.00;;;;;;5024069;28;20197;-88
2022/07/12 00:37:32;;;;;;;638.87;209.27;;;11.70;1.00;;;;;;5033731;28;20194;-88
2022/07/12 00:39:59;;;;;;;640.43;205.23;;;11.70;1.00;;;;;;5034008;28;20222;-88
2022/07/12 00:42:27;;;;;;;634.73;205.00;;;11.70;15.70;;;;;;5034008;28;20190;-88
2022/07/12 00:44:54;;;;;;;646.97;218.57;;;11.70;99.90;;;;;;5033866;28;20198;-88
2022/07/12 00:47:32;;;;;;;638.60;209.00;;;11.70;99.90;;;;;;5034324;28;20209;-88
2022/07/12 00:49:59;;;;;;;640.43;209.47;;;11.70;99.90;;;;;;5033762;28;20197;-88
2022/07/12 00:52:26;;;;;;;637.47;206.10;;;11.70;99.90;;;;;;5033917;28;20535;-88
2022/07/12 00:54:55;;;;;;;630.20;198.27;;;11.70;99.90;;;;;;5033749;28;20599;-88
2022/07/12 00:57:22;;;;;;;636.97;212.20;;;11.70;99.90;;;;;;5033712;28;20668;-88
2022/07/12 00:59:49;;;;;;;662.93;228.87;;;11.70;99.90;;;;;;5033704;28;20229;-87
2022/07/12 01:02:16;;;;;;;684.90;248.20;;;11.70;99.90;;;;;;5033722;28;20200;-89
2022/07/12 01:04:45;;;;;;;685.73;244.83;;;11.70;99.90;;;;;;5031934;28;20202;-88
2022/07/12 01:07:13;;;;;;;686.93;239.50;;;11.70;99.90;;;;;;5033607;28;20193;-88
2022/07/12 01:09:40;;;;;;;686.70;244.23;;;11.70;1.00;;;;;;5033476;28;20194;-88
2022/07/12 01:12:10;;;;;;;682.97;249.30;;;11.70;1.00;;;;;;5032870;28;20587;-88
2022/07/12 01:14:38;;;;;;;680.90;244.93;;;11.70;1.00;;;;;;5033752;28;20222;-88
2022/07/12 01:17:05;;;;;;;683.33;243.03;;;11.70;1.00;;;;;;5032837;28;20718;-89
2022/07/12 01:19:33;;;;;;;680.10;248.93;;;11.60;1.00;;;;;;5033442;28;20231;-89
2022/07/12 01:22:03;;;;;;;678.00;232.10;;;11.60;1.00;;;;;;5032927;28;20197;-88
2022/07/12 01:24:32;;;;;;;667.57;247.53;;;11.60;1.00;;;;;;5033249;28;20189;-89
2022/07/12 01:26:59;;;;;;;683.73;250.87;;;11.60;1.00;;;;;;5033002;28;20217;-89
2022/07/12 01:29:27;;;;;;;680.60;229.47;;;11.60;1.00;;;;;;5033041;28;20199;-90
2022/07/12 01:31:54;;;;;;;676.63;229.80;;;11.50;1.00;;;;;;5033212;28;20209;-88
2022/07/12 01:34:22;;;;;;;667.70;221.07;;;11.50;1.00;;;;;;5030617;28;20194;-89
2022/07/12 01:36:50;;;;;;;666.23;215.67;;;11.50;1.00;;;;;;5033016;28;20575;-89
2022/07/12 01:39:17;;;;;;;668.07;221.23;;;11.50;1.00;;;;;;5032901;28;20243;-89
2022/07/12 01:41:45;;;;;;;665.60;226.30;;;11.50;1.00;;;;;;5032835;28;20284;-89
2022/07/12 01:44:13;;;;;;;666.00;226.37;;;11.50;1.00;;;;;;5032742;28;20227;-88
2022/07/12 01:46:40;;;;;;;666.00;224.80;;;11.40;1.00;;;;;;5032823;28;20210;-89
2022/07/12 01:49:07;;;;;;;660.17;213.13;;;11.50;1.00;;;;;;5032602;28;20580;-88
2022/07/12 01:51:57;;;;;;;663.07;216.80;;;11.50;36.00;;;;;;5051188;28;20202;-89
2022/07/12 01:55:30;;;;;;;659.50;210.33;;;11.40;58.70;;;;;;5055013;28;20206;-89
2022/07/12 02:01:33;;;;;;;657.53;207.97;;;11.40;99.90;;;;;;4889059;29;20278;-91
2022/07/12 02:04:54;;;;;;;;;;;;;;;;;;;;;
2022/07/12 02:13:33;;;;;;;662.93;206.40;;;11.20;99.20;;;;;;4782152;29;20238;-90
2022/07/12 02:16:54;;;;;;;657.87;205.57;;;11.20;99.90;;;;;;4788236;30;20243;-90
2022/07/12 02:22:36;;;;;;;673.90;212.37;;;11.10;92.00;;;;;;4926347;29;20231;-91
2022/07/12 02:29:05;;;;;;;;;;;;;;;;;;;;;
2022/07/12 02:51:14;;;;;;;672.40;205.00;;;11.20;1.00;;;;;;5011287;28;20205;-91
2022/07/12 02:53:56;;;;;;;672.83;205.43;;;11.20;99.90;;;;;;4988386;28;20181;-91
2022/07/12 02:56:23;;;;;;;676.00;217.40;;;11.20;99.90;;;;;;5028484;28;20212;-87
2022/07/12 02:58:53;;;;;;;679.47;229.10;;;11.20;99.90;;;;;;5030510;28;20197;-90
2022/07/12 03:01:20;;;;;;;676.60;224.97;;;11.30;99.90;;;;;;5027675;28;20635;-88
2022/07/12 03:03:52;;;;;;;;;;;11.30;99.90;;;;;;5034823;28;20140;-88
2022/07/12 03:06:19;;;;;;;;;;;11.30;99.90;;;;;;5031389;28;19960;-87
2022/07/12 03:08:50;;;;;;;;;;;11.40;99.90;;;;;;5033008;28;19932;-89
2022/07/12 03:11:32;;;;;;;;;;;11.40;1.00;;;;;;5032065;28;19940;-89
2022/07/12 03:13:59;;;;;;;;;;;11.40;1.00;;;;;;5029567;28;20015;-88
2022/07/12 03:16:26;;;;;;;;;;;11.50;1.00;;;;;;5032033;28;19975;-86
2022/07/12 03:18:54;;;;;;;;;;;11.50;1.00;;;;;;5024993;28;19933;-88
2022/07/12 03:21:21;;;;;;;;;;;11.60;1.00;;;;;;5032315;28;19932;-88
2022/07/12 03:23:49;;;;;;;683.77;227.17;;;11.60;1.00;;;;;;5031501;28;20033;-87
2022/07/12 03:26:16;;;;;;;679.93;234.40;;;11.70;1.00;;;;;;5029096;28;20198;-87
2022/07/12 03:28:56;;;;;;;675.57;219.97;;;11.70;1.00;;;;;;5026591;28;20255;-90
2022/07/12 03:31:23;;;;;;;682.10;233.00;;;11.70;1.00;;;;;;5031620;28;20193;-88
2022/07/12 03:33:50;;;;;;;680.63;239.40;;;11.70;1.00;;;;;;5035451;28;20199;-87
2022/07/12 03:36:21;;;;;;;683.23;238.33;;;11.80;1.00;;;;;;5041202;28;20203;-91
2022/07/12 03:38:48;;;;;;;680.13;237.87;;;11.80;1.00;;;;;;5039183;28;20198;-87
2022/07/12 03:41:19;;;;;;;685.07;238.20;;;11.90;1.00;;;;;;5038136;28;20229;-87
2022/07/12 03:43:46;;;;;;;686.07;245.30;;;11.90;1.00;;;;;;5043301;28;20201;-87
2022/07/12 03:46:13;;;;;;;685.97;248.03;;;12.00;1.00;;;;;;5039431;28;20203;-86
2022/07/12 03:48:40;;;;;;;689.63;254.30;;;12.10;70.70;;;;;;5045999;28;20204;-87
2022/07/12 03:51:25;;;;;;;692.30;258.77;;;12.20;99.90;;;;;;5045368;28;20225;-93
2022/07/12 03:54:32;;;;;;;699.70;256.90;;;12.40;1.00;;;;;;5048377;28;20219;-89
2022/07/12 03:57:15;;;;;;;676.17;239.60;;;13.40;1.00;;;;;;5052259;28;20247;-91
2022/07/12 03:59:46;;;;;;;683.27;267.77;;;14.80;98.60;;;;;;5038646;28;20239;-91
2022/07/12 04:02:22;;;;;;;695.17;299.93;;;16.00;1.00;;;;;;5051551;28;20073;-91
2022/07/12 04:04:53;;;;;;;;;;;17.20;1.00;;;;;;5059009;28;20025;-93
2022/07/12 04:07:23;;;;;;;713.10;358.70;;;18.30;1.00;;;;;;5059126;28;19905;-90
2022/07/12 04:09:50;;;;;;;;;;;19.40;99.90;;;;;;5058803;28;19925;-88
2022/07/12 04:12:18;;;;;;;;;;;20.40;99.90;;;;;;5034752;28;19936;-86
2022/07/12 04:14:49;;;;;;;;;;;21.30;1.00;;;;;;5042701;28;19948;-89
2022/07/12 04:17:16;;;;;;;;;;;22.20;99.90;;;;;;5036236;28;19929;-86
2022/07/12 04:19:46;;;;;;;732.15;517.35;;;23.10;1.00;;;;;;5036376;28;20049;-92
2022/07/12 04:22:13;;;;;;;749.70;558.55;;;23.90;1.00;;;;;;5037006;28;20220;-86
2022/07/12 04:24:40;;;;;;;761.28;600.60;;;24.60;99.90;;;;;;5035900;28;20650;-87
2022/07/12 04:27:08;;;;;;;752.08;602.75;;;25.30;1.00;;;;;;5028615;28;20649;-88
2022/07/12 04:29:36;;;;;;;762.95;638.03;;;25.90;99.90;;;;;;5030321;28;20549;-88
2022/07/12 04:32:04;;;;;;;767.50;667.45;;;26.40;99.90;;;;;;5032205;28;20198;-88
2022/07/12 04:34:31;;;;;;;780.08;694.10;;;26.90;1.00;;;;;;5036870;28;20668;-89
2022/07/12 04:37:09;;;;;;;797.05;710.25;;;27.50;1.00;;;;;;5038209;28;20190;-92
2022/07/12 04:39:36;;;;;;;805.00;719.20;;;28.20;1.00;;;;;;5035192;28;20200;-89
2022/07/12 04:42:04;;;;;;;811.60;726.08;;;28.80;1.00;;;;;;5039665;28;20217;-91
2022/07/12 04:44:31;;;;;;;835.13;748.72;;;29.40;1.00;;;;;;5041974;28;20239;-91
2022/07/12 04:46:59;;;;;;;857.58;770.67;;;29.80;1.00;;;;;;5033917;28;20183;-89
2022/07/12 04:49:26;;;;;;;871.13;783.95;;;30.30;1.00;;;;;;5033743;28;20193;-89
2022/07/12 04:51:54;;;;;;;899.53;811.67;;;30.70;99.90;;;;;;5033959;28;20202;-90
2022/07/12 04:54:20;;;;;;;;;;;31.10;99.90;;;;;;5034132;28;20201;-87
2022/07/12 04:56:47;;;;;;;920.38;832.20;;;31.40;99.90;;;;;;5033924;28;20106;-87
2022/07/12 04:59:15;;;;;;;920.35;832.15;;;31.80;99.90;;;;;;5033054;28;20216;-87
2022/07/12 05:01:42;;;;;;;964.58;874.92;;;32.30;99.90;;;;;;5024797;28;20683;-87
2022/07/12 05:04:10;;;;;;;974.42;884.35;;;32.70;99.90;;;;;;5033302;28;20252;-87
2022/07/12 05:06:37;;;;;;;995.78;904.90;;;33.10;99.90;;;;;;5033267;28;20265;-86
2022/07/12 05:09:04;;;;;;;1001.92;911.05;;;33.30;99.90;;;;;;5033135;28;20197;-87
2022/07/12 05:11:33;;;;;;;1000.70;910.33;;;33.50;99.90;;;;;;5033325;28;20671;-87
2022/07/12 05:14:00;;;;;;;1009.92;919.80;;;33.70;99.90;;;;;;5033540;28;20220;-87
2022/07/12 05:16:27;;;;;;;;;;;34.00;99.90;;;;;;5023561;28;20086;-87
2022/07/12 05:18:54;;;;;;;1010.67;920.95;;;34.10;99.90;;;;;;5033060;28;20297;-87
2022/07/12 05:21:22;;;;;;;1032.65;941.67;;;34.50;99.90;;;;;;5030083;28;20228;-87
2022/07/12 05:23:49;;;;;;;1023.97;934.10;;;34.60;99.90;;;;;;5032972;28;20193;-88
2022/07/12 05:26:17;;;;;;;1041.97;950.92;;;34.70;99.90;;;;;;5033061;28;20197;-88
2022/07/12 05:28:44;;;;;;;1037.03;946.60;;;34.80;99.90;;;;;;5043553;28;20560;-89
2022/07/12 05:31:11;;;;;;;1032.45;941.85;;;34.70;99.90;;;;;;5032764;28;20229;-88
2022/07/12 05:33:38;;;;;;;1046.57;955.55;;;34.60;99.90;;;;;;5032808;28;20560;-88
2022/07/12 05:36:26;;;;;;;1049.63;958.13;;;34.50;99.90;;;;;;5050924;28;20201;-91
2022/07/12 05:43:03;;;;;;;1050.60;958.40;;;34.60;99.90;;;;;;5035690;28;20216;-94
2022/07/12 05:49:46;;;;;;;1058.88;966.15;;;34.30;99.90;;;;;;4926644;29;20181;-89
2022/07/12 05:54:58;;;;;;;1090.13;993.88;;;34.60;99.90;;;;;;5044094;28;20208;-90
2022/07/12 05:57:25;;;;;;;1088.13;992.80;;;34.80;99.90;;;;;;5039953;28;20193;-89
2022/07/12 05:59:52;;;;;;;1087.00;991.78;;;35.20;99.90;;;;;;5031892;28;20201;-87
2022/07/12 06:02:19;;;;;;;1103.25;999.25;;;35.40;99.90;;;;;;5031444;28;20224;-87
2022/07/12 06:04:47;;;;;;;1108.35;999.90;;;35.30;99.90;;;;;;5032415;28;20194;-87
2022/07/12 06:07:14;;;;;;;1104.72;999.88;;;35.30;99.90;;;;;;5032403;28;20189;-87
2022/07/12 06:09:47;;;;;;;1104.60;999.90;;;35.40;99.90;;;;;;5048755;28;20197;-89
2022/07/12 06:12:22;;;;;;;1107.53;999.90;;;35.70;99.90;;;;;;5050243;28;20177;-92
2022/07/12 06:14:50;;;;;;;1110.28;999.90;;;36.00;99.90;;;;;;5048760;28;20208;-91
2022/07/12 06:17:23;;;;;;;1114.45;999.90;;;36.30;99.90;;;;;;5053512;28;20185;-91
2022/07/12 06:20:01;;;;;;;1122.57;999.90;;;36.60;99.90;;;;;;5045664;28;20192;-90
2022/07/12 06:25:27;;;;;;;1142.78;999.90;;;36.70;99.90;;;;;;5103618;27;20545;-89
2022/07/12 06:28:18;;;;;;;1139.93;999.90;;;36.80;99.90;;;;;;5101817;28;20198;-89
2022/07/12 06:30:50;;;;;;;;;;;36.80;99.90;;;;;;5098324;28;20171;-90
2022/07/12 06:33:17;;;;;;;1121.80;999.90;;;36.70;99.90;;;;;;5096939;28;20764;-91
2022/07/12 06:36:05;;;;;;;1127.63;999.90;;;36.80;99.90;;;;;;5106592;28;20190;-90
2022/07/12 06:38:38;;;;;;;1121.18;999.90;;;36.70;99.90;;;;;;5077829;28;20375;-91
2022/07/12 06:41:12;;;;;;;1122.82;999.90;;;36.60;99.90;;;;;;5094982;28;20209;-91
2022/07/12 06:43:48;;;;;;;1123.68;999.90;;;36.70;99.90;;;;;;5094544;28;20222;-90
2022/07/12 06:46:28;;;;;;;1129.40;999.90;;;36.80;99.90;;;;;;5093576;28;20632;-87
2022/07/12 06:48:59;;;;;;;1137.22;999.90;;;36.80;99.90;;;;;;5083310;28;20187;-90
2022/07/12 06:51:39;;;;;;;1146.47;999.90;;;36.90;99.90;;;;;;5081474;28;20679;-89
2022/07/12 06:54:06;;;;;;;1143.82;999.90;;;37.20;99.90;;;;;;5094417;28;20186;-88
2022/07/12 06:56:38;;;;;;;1154.18;999.90;;;37.30;99.90;;;;;;5074575;28;20188;-95
2022/07/12 06:59:05;;;;;;;1161.50;999.90;;;37.50;99.90;;;;;;5088274;28;20265;-85
2022/07/12 07:01:32;;;;;;;1173.95;999.90;;;37.50;99.90;;;;;;5091155;28;20579;-87
2022/07/12 07:04:14;;;;;;;1172.57;999.90;;;37.30;99.90;;;;;;5102226;28;20206;-90
2022/07/12 07:07:22;;;;;;;1161.80;999.90;;;37.20;99.90;;;;;;5082254;28;20199;-88
2022/07/12 07:10:44;;;;;;;1161.45;999.90;;;36.80;99.90;;;;;;5069274;28;20211;-89
2022/07/12 07:13:13;;;;;;;1148.20;999.90;;;36.70;99.90;;;;;;5079704;28;20175;-87
2022/07/12 07:15:42;;;;;;;1160.05;999.90;;;36.80;99.90;;;;;;5081753;28;20195;-86
2022/07/12 07:18:51;;;;;;;1158.38;999.90;;;37.10;99.90;;;;;;5099780;28;20685;-94
2022/07/12 07:21:18;;;;;;;1156.03;999.90;;;37.40;99.90;;;;;;5076235;28;20220;-86
2022/07/12 07:23:54;;;;;;;1154.97;999.90;;;37.40;99.90;;;;;;5094454;28;20238;-90
2022/07/12 07:26:22;;;;;;;1139.75;999.90;;;37.60;99.90;;;;;;5087671;28;20191;-86
2022/07/12 07:31:36;;;;;;;1184.13;999.90;;;38.10;99.90;;;;;;5099777;28;20202;-89
2022/07/12 07:34:07;;;;;;;1179.63;999.90;;;37.90;99.90;;;;;;5110081;28;20168;-89
2022/07/12 07:37:19;;;;;;;1182.75;999.90;;;37.80;99.90;;;;;;5095176;28;20196;-93
2022/07/12 07:39:48;;;;;;;1173.70;999.90;;;37.80;99.90;;;;;;5080302;28;20204;-90
2022/07/12 07:42:39;;;;;;;1176.30;999.90;;;37.90;99.90;;;;;;5073617;28;20253;-87
2022/07/12 07:45:36;;;;;;;1168.40;999.90;;;38.10;99.90;;;;;;5094259;28;20231;-92
2022/07/12 08:12:11;;;;;;;1173.07;999.90;;;38.10;99.90;;;;;;5062291;28;20208;-89
2022/07/12 08:14:38;;;;;;;1171.32;999.90;;;38.10;99.90;;;;;;5054439;28;20218;-86
2022/07/12 08:17:05;;;;;;;1182.80;999.90;;;37.80;99.90;;;;;;5073807;28;20544;-86
2022/07/12 08:19:38;;;;;;;1172.38;999.90;;;37.50;99.90;;;;;;5085496;28;20192;-90
2022/07/12 08:22:05;;;;;;;1179.63;999.90;;;37.60;99.90;;;;;;5086608;28;20207;-86
2022/07/12 08:34:51;;;;;;;1164.13;999.90;;;38.00;99.90;;;;;;4939179;29;20270;-91
2022/07/12 08:37:29;;;;;;;1160.65;999.90;;;38.00;99.90;;;;;;4970344;28;20304;-91
2022/07/12 08:39:56;;;;;;;1164.45;999.90;;;38.00;99.90;;;;;;5022392;28;20611;-86
2022/07/12 08:42:23;;;;;;;1158.20;999.90;;;38.10;99.90;;;;;;5028825;28;20202;-87
2022/07/12 08:45:06;;;;;;;1158.40;999.90;;;38.00;99.90;;;;;;5055743;28;20220;-88
2022/07/12 08:47:33;;;;;;;1168.90;999.90;;;38.00;99.90;;;;;;5077547;28;20192;-91
2022/07/12 08:50:17;;;;;;;1164.03;999.90;;;38.00;99.90;;;;;;5077874;28;20203;-88
2022/07/12 08:52:47;;;;;;;1163.10;999.90;;;37.90;99.90;;;;;;5056011;28;20199;-91
2022/07/12 08:55:19;;;;;;;1164.38;999.90;;;37.80;99.90;;;;;;5074290;28;20192;-87
2022/07/12 08:57:47;;;;;;;1176.53;999.90;;;37.80;99.90;;;;;;5083612;28;20188;-88
2022/07/12 09:07:20;;;;;;;1160.30;999.90;;;36.60;99.90;;;;;;4931504;28;20216;-87
2022/07/12 09:13:54;;;;;;;1145.40;999.90;;;36.60;99.90;;;;;;4880120;29;20622;-91
2022/07/12 09:16:23;;;;;;;1149.85;999.90;;;36.10;99.90;;;;;;4998382;28;20174;-91
2022/07/12 09:19:20;;;;;;;1149.25;999.90;;;36.00;99.90;;;;;;4991756;28;20155;-89
2022/07/12 09:21:55;;;;;;;1140.40;999.90;;;35.70;99.90;;;;;;4990644;28;20671;-88
2022/07/12 09:24:26;;;;;;;1135.40;999.90;;;35.80;99.90;;;;;;5036077;28;20231;-87
2022/07/12 09:26:58;;;;;;;1135.80;999.90;;;35.80;99.90;;;;;;5087890;28;20200;-86
2022/07/12 09:29:48;;;;;;;1147.30;999.90;;;36.00;99.90;;;;;;5049367;28;20186;-89
2022/07/12 09:37:48;;;;;;;1113.22;999.90;;;33.70;99.90;;;;;;5056317;28;20211;-86
2022/07/12 09:40:18;;;;;;;1097.60;997.63;;;33.20;99.90;;;;;;5065536;28;20315;-89
2022/07/12 09:42:46;;;;;;;1080.85;986.50;;;32.40;99.90;;;;;;5074165;28;20195;-89
2022/07/12 09:45:17;;;;;;;;;;;31.70;99.90;;;;;;5066649;28;20106;-90
2022/07/12 09:47:44;;;;;;;;;;;31.20;99.90;;;;;;5075151;28;19947;-86
2022/07/12 09:50:15;;;;;;;1033.03;939.78;;;31.20;99.90;;;;;;5066337;28;20671;-90
2022/07/12 09:52:46;;;;;;;1020.13;927.65;;;31.30;99.90;;;;;;5076734;28;20228;-89
2022/07/12 09:55:21;;;;;;;1020.00;927.42;;;31.30;99.90;;;;;;5093037;28;20244;-86
2022/07/12 09:57:52;;;;;;;;;;;31.50;99.90;;;;;;5078394;28;20056;-90
2022/07/12 10:00:20;;;;;;;1001.95;910.08;;;31.20;99.90;;;;;;5072646;28;20226;-91
2022/07/12 10:02:49;;;;;;;1006.45;914.33;;;30.50;99.90;;;;;;5074945;28;20202;-86
2022/07/12 10:05:29;;;;;;;984.92;893.22;;;29.90;99.90;;;;;;5064416;28;20207;-89
2022/07/12 10:08:05;;;;;;;;;;;29.90;99.90;;;;;;5075797;28;20082;-88
2022/07/12 10:10:33;;;;;;;990.50;898.40;;;29.90;99.90;;;;;;5072445;28;20213;-86
2022/07/12 10:13:21;;;;;;;984.45;892.33;;;29.70;99.90;;;;;;5075623;28;20260;-89
2022/07/12 10:15:50;;;;;;;972.10;880.78;;;29.90;99.90;;;;;;5071345;28;20189;-90
2022/07/12 10:18:18;;;;;;;951.75;861.33;;;30.10;99.90;;;;;;5047308;28;20182;-86
2022/07/12 10:20:49;;;;;;;964.33;873.50;;;30.10;99.90;;;;;;5088642;28;20172;-88
2022/07/12 10:23:36;;;;;;;962.38;871.53;;;30.20;99.90;;;;;;5074626;28;20251;-90
2022/07/12 10:26:44;;;;;;;964.03;873.35;;;30.10;99.90;;;;;;5039733;28;20649;-89
2022/07/12 10:29:24;;;;;;;956.35;866.28;;;29.30;99.90;;;;;;5090199;28;20200;-88
2022/07/12 10:32:39;;;;;;;957.15;866.67;;;29.10;99.90;;;;;;5094159;28;20199;-89
2022/07/12 10:49:26;;;;;;;943.83;854.03;;;28.60;99.90;;;;;;4838335;29;20182;-86
2022/07/12 10:58:39;;;;;;;906.00;818.03;;;27.30;99.90;;;;;;4898989;29;20199;-88
2022/07/12 11:01:08;;;;;;;901.53;813.50;;;27.70;99.90;;;;;;4901956;28;20281;-91
2022/07/12 11:03:42;;;;;;;907.75;819.85;;;27.90;99.90;;;;;;5075344;28;20211;-90
2022/07/12 11:06:14;;;;;;;900.83;813.10;;;28.00;99.90;;;;;;5052426;28;20205;-87
2022/07/12 11:08:57;;;;;;;900.65;813.15;;;28.00;99.90;;;;;;5039617;28;20196;-89
2022/07/12 11:11:42;;;;;;;897.83;810.22;;;27.90;99.90;;;;;;5068270;28;20648;-89
2022/07/12 11:14:10;;;;;;;893.53;806.53;;;28.10;99.90;;;;;;5060520;28;20252;-87
2022/07/12 11:16:45;;;;;;;896.47;809.40;;;28.30;99.90;;;;;;5054934;28;20199;-89
2022/07/12 11:19:14;;;;;;;882.85;796.10;;;28.50;99.90;;;;;;5075517;28;20187;-89
2022/07/12 11:22:15;;;;;;;908.75;821.40;;;28.60;99.90;;;;;;5088348;28;20200;-91
2022/07/12 11:24:53;;;;;;;890.50;803.75;;;28.40;99.90;;;;;;5045428;28;20256;-90
2022/07/12 11:27:21;;;;;;;900.75;813.45;;;27.90;99.90;;;;;;5070616;28;20196;-87
2022/07/12 11:33:06;;;;;;;876.93;790.13;;;27.10;99.90;;;;;;5063317;28;20262;-88
2022/07/12 11:35:33;;;;;;;881.30;793.83;;;26.60;99.90;;;;;;5067604;28;20242;-86
2022/07/12 11:38:00;;;;;;;876.50;789.17;;;26.60;99.90;;;;;;5074656;28;20552;-86
2022/07/12 11:40:31;;;;;;;865.10;777.83;;;26.70;99.90;;;;;;5074525;28;20663;-86
2022/07/12 11:42:59;;;;;;;864.00;777.03;;;26.80;99.90;;;;;;5074529;28;20184;-86
2022/07/12 11:45:28;;;;;;;860.63;773.30;;;26.70;99.90;;;;;;5077301;28;20691;-86
2022/07/12 11:48:15;;;;;;;852.70;766.13;;;26.60;99.90;;;;;;5082176;28;20216;-89
2022/07/12 11:50:44;;;;;;;831.60;745.17;;;26.30;99.90;;;;;;5086315;28;20540;-85
2022/07/12 11:53:17;;;;;;;829.87;743.90;;;26.10;99.90;;;;;;5083337;28;20203;-86
2022/07/12 11:55:48;;;;;;;813.27;728.07;;;26.30;99.90;;;;;;5080467;28;20195;-87
2022/07/12 11:58:15;;;;;;;835.87;749.63;;;26.60;99.90;;;;;;5074602;28;20204;-87
2022/07/12 12:00:43;;;;;;;824.90;739.23;;;26.80;99.90;;;;;;5074558;28;20223;-87
2022/07/12 12:03:10;;;;;;;827.73;741.93;;;27.10;99.90;;;;;;5074438;28;20370;-87
2022/07/12 12:05:38;;;;;;;829.70;744.07;;;27.30;99.90;;;;;;5063619;28;20221;-87
2022/07/12 12:08:23;;;;;;;844.07;757.63;;;27.50;99.90;;;;;;5056659;28;20668;-89
2022/07/12 12:11:11;;;;;;;851.17;764.03;;;27.70;99.90;;;;;;5077828;28;20196;-89
2022/07/12 12:13:38;;;;;;;861.47;775.03;;;27.90;99.90;;;;;;5075029;28;20185;-86
2022/07/12 12:16:06;;;;;;;860.03;773.60;;;28.10;99.90;;;;;;5077327;28;20230;-85
2022/07/12 12:18:35;;;;;;;869.78;783.03;;;28.10;99.90;;;;;;5073997;28;20192;-85
2022/07/12 12:21:04;;;;;;;871.85;784.63;;;28.10;99.90;;;;;;5082304;28;20200;-86
2022/07/12 12:23:31;;;;;;;870.85;784.53;;;28.10;99.90;;;;;;5073863;28;20205;-87
2022/07/12 12:26:16;;;;;;;868.03;781.40;;;28.20;99.90;;;;;;5073879;28;20212;-87
2022/07/12 12:28:52;;;;;;;872.15;785.63;;;28.00;99.90;;;;;;5069439;28;20200;-87
2022/07/12 12:31:20;;;;;;;868.40;781.90;;;28.00;99.90;;;;;;5075476;28;20269;-85
2022/07/12 12:34:02;;;;;;;885.28;797.85;;;28.00;99.90;;;;;;5090084;28;20571;-89
2022/07/12 12:36:36;;;;;;;872.85;785.88;;;28.00;99.90;;;;;;5075165;28;20204;-85
2022/07/12 12:39:23;;;;;;;884.17;796.67;;;28.00;99.90;;;;;;5081538;28;20173;-90
2022/07/12 12:41:52;;;;;;;877.17;790.13;;;28.10;99.90;;;;;;5092689;28;20617;-85
2022/07/12 12:44:43;;;;;;;881.17;794.13;;;28.10;99.90;;;;;;5076134;28;20196;-90
2022/07/12 12:50:04;;;;;;;875.25;788.05;;;27.80;99.90;;;;;;5063352;28;20279;-90
2022/07/12 12:52:38;;;;;;;876.70;789.53;;;27.50;99.90;;;;;;5086873;28;20204;-87
2022/07/12 12:55:13;;;;;;;891.28;803.53;;;27.40;99.90;;;;;;5085390;28;20201;-91
2022/07/12 13:01:06;;;;;;;853.73;767.53;;;27.00;99.90;;;;;;5067976;28;20260;-87
2022/07/12 13:03:39;;;;;;;847.08;761.17;;;27.00;99.90;;;;;;5095409;28;20196;-88
2022/07/12 13:06:18;;;;;;;851.73;765.30;;;26.90;99.90;;;;;;5088268;28;20260;-87
2022/07/12 13:09:08;;;;;;;838.42;752.50;;;26.70;99.90;;;;;;5075427;28;20189;-89
2022/07/12 13:15:07;;;;;;;821.13;736.27;;;26.80;99.90;;;;;;5046397;28;20208;-85
2022/07/12 13:17:35;;;;;;;828.43;743.07;;;26.90;99.90;;;;;;5080584;28;20664;-85
2022/07/12 13:20:09;;;;;;;830.77;745.63;;;26.90;99.90;;;;;;5087631;28;20553;-89
2022/07/12 13:23:03;;;;;;;819.20;734.27;;;26.90;99.90;;;;;;5062469;28;20206;-90
2022/07/12 13:28:18;;;;;;;825.20;739.97;;;27.00;99.90;;;;;;5052095;28;20244;-89
2022/07/12 13:31:16;;;;;;;829.90;744.77;;;27.10;99.90;;;;;;5076479;28;20211;-88
2022/07/12 13:33:52;;;;;;;829.10;744.03;;;27.00;99.90;;;;;;5086631;28;20227;-88
2022/07/12 13:36:27;;;;;;;830.57;745.13;;;27.10;99.90;;;;;;5077043;28;20197;-89
2022/07/12 13:41:55;;;;;;;831.20;746.03;;;27.30;99.90;;;;;;5072860;28;20192;-84
2022/07/12 13:50:31;;;;;;;863.47;776.55;;;27.90;99.90;;;;;;5080072;28;20183;-87
2022/07/12 13:53:09;;;;;;;859.53;772.88;;;27.90;99.90;;;;;;5096484;28;20255;-89
2022/07/12 13:55:48;;;;;;;862.00;775.20;;;27.80;99.90;;;;;;5078938;28;20216;-88
2022/07/12 13:58:36;;;;;;;880.70;793.22;;;27.80;99.90;;;;;;5071125;28;20189;-87
2022/07/12 14:01:10;;;;;;;873.05;786.03;;;27.70;99.90;;;;;;5081539;28;20241;-85
2022/07/12 14:03:43;;;;;;;881.38;794.03;;;27.70;99.90;;;;;;5085962;28;20183;-87
2022/07/12 14:06:21;;;;;;;884.80;797.42;;;27.70;99.90;;;;;;5070940;28;20208;-86
2022/07/12 14:08:48;;;;;;;871.25;784.50;;;27.70;99.90;;;;;;5057152;28;20179;-83
2022/07/12 14:11:23;;;;;;;865.65;779.05;;;27.70;99.90;;;;;;5067804;28;20228;-87
2022/07/12 14:13:55;;;;;;;871.08;784.25;;;27.60;99.90;;;;;;5074480;28;20251;-88
2022/07/12 14:16:27;;;;;;;865.10;778.28;;;27.60;99.90;;;;;;5075098;28;20198;-87
2022/07/12 14:19:13;;;;;;;864.35;777.47;;;27.50;99.90;;;;;;5050299;28;20197;-82
2022/07/12 14:21:58;;;;;;;870.22;783.22;;;27.30;99.90;;;;;;5070097;28;20230;-85
2022/07/12 14:24:25;;;;;;;861.05;774.20;;;27.10;99.90;;;;;;5072311;28;20292;-83
2022/07/12 14:26:53;;;;;;;866.95;779.97;;;27.10;99.90;;;;;;5094152;28;20200;-90
2022/07/12 14:29:38;;;;;;;865.58;778.75;;;27.00;99.90;;;;;;5092690;28;20180;-88
2022/07/12 14:32:06;;;;;;;851.03;763.97;;;27.00;99.90;;;;;;5085526;28;20203;-88
2022/07/12 14:34:33;;;;;;;835.65;749.83;;;26.90;99.90;;;;;;5086102;28;20176;-85
2022/07/12 14:37:02;;;;;;;853.27;766.27;;;26.90;99.90;;;;;;5072601;28;20211;-85
2022/07/12 14:39:31;;;;;;;854.67;768.10;;;26.90;99.90;;;;;;5084332;28;20199;-89
2022/07/12 14:41:59;;;;;;;833.03;747.27;;;26.80;99.90;;;;;;5070506;28;20683;-83
2022/07/12 14:44:36;;;;;;;828.07;742.77;;;26.90;99.90;;;;;;5073111;28;20188;-88
2022/07/12 14:47:17;;;;;;;832.97;747.27;;;26.80;99.90;;;;;;5076323;28;20216;-87
2022/07/12 14:50:07;;;;;;;854.47;767.90;;;26.70;99.90;;;;;;5084266;28;20189;-88
2022/07/12 14:52:40;;;;;;;830.57;744.80;;;26.60;99.90;;;;;;5081131;28;20192;-89
2022/07/12 14:55:14;;;;;;;844.27;758.17;;;26.40;99.90;;;;;;5094214;28;20192;-89
2022/07/12 14:58:00;;;;;;;835.27;749.50;;;26.40;99.90;;;;;;5099062;28;20196;-87
2022/07/12 15:04:31;;;;;;;827.23;741.67;;;26.40;99.90;;;;;;5092066;28;20211;-87
2022/07/12 15:07:12;;;;;;;830.63;744.77;;;26.40;99.90;;;;;;5093679;28;20287;-89
2022/07/12 15:09:56;;;;;;;813.10;727.80;;;26.30;99.90;;;;;;5091661;28;20200;-87
2022/07/12 15:12:50;;;;;;;809.20;724.07;;;26.20;99.90;;;;;;5092493;28;20234;-89
2022/07/12 15:15:29;;;;;;;821.37;735.93;;;26.20;99.90;;;;;;5080206;28;20193;-88
2022/07/12 15:27:42;;;;;;;805.27;720.37;;;26.10;99.90;;;;;;5057935;28;20236;-88
2022/07/12 15:30:20;;;;;;;801.03;716.27;;;26.00;99.90;;;;;;5093169;28;20187;-88
2022/07/12 15:33:09;;;;;;;798.47;713.67;;;25.90;99.90;;;;;;5095791;28;20188;-87